Time;durP1;ratioP1;P1;durP2;ratioP2;P2;SDS_P1;SDS_P2;PMS_P1;PMS_P2;Temp;Humidity;BMP_temperature;BMP_pressure;BME280_temperature;BME280_humidity;BME280_pressure;Samples;Min_cycle;Max_cycle;Signal;HPM_P1;HPM_P2
2021/12/17 00:01:01;;;;;;;16.40;10.03;;;;;;;8.85;81.66;103516.50;5080451;28;20390;-77
2021/12/17 00:03:39;;;;;;;15.73;10.60;;;;;;;8.77;81.91;103519.56;5081526;28;20389;-76
2021/12/17 00:08:36;;;;;;;13.40;10.07;;;;;;;8.55;83.00;103517.31;5081229;28;20394;-77
2021/12/17 00:11:03;;;;;;;15.57;9.83;;;;;;;9.16;80.54;103514.09;5080893;28;20453;-76
2021/12/17 00:13:28;;;;;;;16.80;10.87;;;;;;;8.82;81.91;103518.94;5080645;28;20466;-75
2021/12/17 00:15:54;;;;;;;19.37;11.10;;;;;;;9.11;81.13;103507.72;5081184;28;20465;-74
2021/12/17 00:18:32;;;;;;;13.23;10.10;;;;;;;9.14;80.60;103501.78;5080832;28;20188;-72
2021/12/17 00:53:32;;;;;;;16.33;10.40;;;;;;;9.02;80.98;103502.84;5080132;28;20557;-77
2021/12/17 00:55:57;;;;;;;17.43;11.57;;;;;;;9.24;79.90;103504.13;5080027;28;20810;-75
2021/12/17 00:58:23;;;;;;;13.07;9.67;;;;;;;9.41;79.22;103500.81;5080091;28;20248;-76
2021/12/17 01:00:49;;;;;;;34.53;22.20;;;;;;;9.35;79.46;103496.94;5080417;28;20541;-74
2021/12/17 01:03:14;;;;;;;18.30;10.77;;;;;;;9.28;80.29;103503.50;5079926;28;20169;-75
2021/12/17 01:05:40;;;;;;;14.83;10.43;;;;;;;9.14;80.08;103507.88;5079899;28;20218;-75
2021/12/17 01:08:06;;;;;;;13.80;9.67;;;;;;;9.25;78.93;103512.06;5080217;28;20214;-75
2021/12/17 01:10:38;;;;;;;13.17;9.90;;;;;;;9.50;78.91;103500.47;5079658;28;20177;-75
2021/12/17 01:13:06;;;;;;;16.13;10.10;;;;;;;9.16;79.68;103507.97;5079689;28;20212;-75
2021/12/17 01:15:32;;;;;;;16.43;10.67;;;;;;;9.39;79.55;103499.84;5079575;28;20407;-74
2021/12/17 01:18:03;;;;;;;13.60;9.37;;;;;;;8.83;80.71;103492.13;5079236;28;20763;-76
2021/12/17 01:20:49;;;;;;;13.13;10.00;;;;;;;9.18;79.16;103493.38;5062970;28;20187;-75
2021/12/17 01:35:20;;;;;;;14.30;9.90;;;;;;;9.04;80.83;103496.03;5060194;28;20430;-77
2021/12/17 01:37:01;;;;;;;13.07;9.27;;;;;;;9.50;77.00;103487.44;5079270;28;20444;-72
2021/12/17 01:40:39;;;;;;;10.83;9.33;;;;;;;9.87;76.33;103486.94;5079622;28;20389;-72
2021/12/17 01:42:24;;;;;;;11.37;9.30;;;;;;;9.42;77.51;103489.59;5079073;28;20433;-71
2021/12/17 01:44:49;;;;;;;12.23;9.30;;;;;;;9.40;77.25;103486.03;5079334;28;20418;-71
2021/12/17 01:47:15;;;;;;;12.53;9.17;;;;;;;9.59;77.02;103494.88;5079283;28;20435;-71
2021/12/17 02:00:30;;;;;;;10.60;8.10;;;;;;;9.19;78.59;103479.56;5078947;28;20382;-71
2021/12/17 02:02:59;;;;;;;11.57;8.20;;;;;;;9.34;78.32;103472.63;5078704;28;20419;-70
2021/12/17 02:05:24;;;;;;;10.00;8.60;;;;;;;9.15;78.80;103470.66;5078218;28;20424;-70
2021/12/17 02:07:53;;;;;;;10.63;7.70;;;;;;;9.35;77.50;103471.84;5078649;28;20390;-71
2021/12/17 02:21:45;;;;;;;8.97;7.33;;;;;;;9.20;78.94;103456.22;5078557;28;20509;-71
2021/12/17 02:30:03;;;;;;;11.30;7.13;;;;;;;9.43;78.75;103465.38;5078461;28;20432;-71
2021/12/17 02:32:31;;;;;;;9.20;6.30;;;;;;;9.30;78.60;103454.16;5078268;28;20520;-72
2021/12/17 02:35:34;;;;;;;10.33;8.07;;;;;;;9.10;79.63;103457.34;5078352;28;20415;-71
2021/12/17 02:37:49;;;;;;;10.63;7.67;;;;;;;8.88;80.93;103457.78;5075237;28;20794;-71
2021/12/17 02:45:32;;;;;;;10.73;8.00;;;;;;;9.35;79.29;103445.78;5078399;28;20440;-71
2021/12/17 02:48:09;;;;;;;10.30;7.97;;;;;;;9.22;80.22;103445.88;5078124;28;20866;-71
2021/12/17 02:50:36;;;;;;;12.33;8.40;;;;;;;9.24;79.66;103446.84;5078253;28;20722;-71
2021/12/17 02:53:07;;;;;;;8.57;6.77;;;;;;;9.27;79.01;103447.06;5077726;28;20570;-71
2021/12/17 02:55:33;;;;;;;8.30;6.13;;;;;;;9.21;79.50;103450.16;5078330;28;20411;-71
2021/12/17 02:57:58;;;;;;;8.20;5.83;;;;;;;9.30;79.17;103451.56;5077918;28;20385;-71
2021/12/17 03:00:24;;;;;;;9.47;6.30;;;;;;;9.16;79.33;103453.31;5078492;28;20395;-71
2021/12/17 03:02:49;;;;;;;8.20;6.20;;;;;;;9.31;78.08;103459.44;5077872;28;20168;-71
2021/12/17 03:05:15;;;;;;;7.53;6.00;;;;;;;9.30;78.49;103464.56;5077320;28;20176;-71
2021/12/17 03:07:44;;;;;;;9.67;6.27;;;;;;;9.12;79.35;103467.88;5078322;28;20403;-71
2021/12/17 03:10:11;;;;;;;9.27;6.37;;;;;;;9.20;79.36;103465.69;5078108;28;20466;-71
2021/12/17 03:12:44;;;;;;;8.97;5.70;;;;;;;8.92;79.98;103474.47;5076985;28;20441;-71
2021/12/17 03:15:21;;;;;;;8.10;5.43;;;;;;;9.08;79.29;103477.19;5077885;28;20386;-71
2021/12/17 03:23:29;;;;;;;7.60;6.33;;;;;;;9.14;78.65;103471.44;5077997;28;20388;-70
2021/12/17 03:25:59;;;;;;;7.07;5.60;;;;;;;8.98;79.09;103469.63;5077809;28;20624;-72
2021/12/17 03:28:25;;;;;;;8.40;6.03;;;;;;;9.03;79.09;103477.72;5077972;28;20423;-71
2021/12/17 03:30:50;;;;;;;8.20;6.60;;;;;;;9.21;78.80;103470.09;5078321;28;20854;-71
2021/12/17 03:33:15;;;;;;;8.77;6.50;;;;;;;8.56;80.61;103467.09;5077824;28;20204;-70
2021/12/17 03:35:41;;;;;;;8.10;5.60;;;;;;;8.84;79.71;103465.31;5080893;28;20173;-71
2021/12/17 03:38:06;;;;;;;8.30;5.73;;;;;;;9.11;78.51;103458.25;5081561;28;20215;-70
2021/12/17 03:40:33;;;;;;;8.07;5.77;;;;;;;9.41;77.88;103464.38;5082822;28;20256;-71
2021/12/17 03:43:04;;;;;;;7.60;5.40;;;;;;;9.34;77.84;103463.94;5082722;28;20160;-71
2021/12/17 03:45:29;;;;;;;10.67;6.50;;;;;;;9.23;77.84;103453.78;5082495;28;20393;-70
2021/12/17 03:47:55;;;;;;;8.87;6.33;;;;;;;9.57;77.24;103452.25;5082831;28;20392;-72
2021/12/17 03:50:20;;;;;;;7.87;5.93;;;;;;;9.34;77.75;103440.50;5082184;28;20176;-70
2021/12/17 03:52:46;;;;;;;10.10;6.70;;;;;;;9.28;78.28;103422.78;5081000;28;20311;-70
2021/12/17 03:55:11;;;;;;;8.77;5.93;;;;;;;9.36;77.37;103421.56;5081027;28;20188;-71
2021/12/17 03:57:37;;;;;;;8.97;5.87;;;;;;;9.07;78.20;103430.25;5081026;28;20165;-71
2021/12/17 04:00:06;;;;;;;7.03;5.70;;;;;;;9.34;77.18;103432.69;5081343;28;20445;-71
2021/12/17 04:02:32;;;;;;;7.07;5.60;;;;;;;9.31;77.09;103432.50;5080742;28;20169;-70
2021/12/17 04:04:57;;;;;;;6.70;5.97;;;;;;;9.37;76.91;103438.06;5081506;28;20465;-71
2021/12/17 04:07:22;;;;;;;6.70;6.00;;;;;;;8.98;78.49;103434.91;5081007;28;20180;-70
2021/12/17 04:09:48;;;;;;;8.90;6.63;;;;;;;9.30;77.12;103428.13;5081087;28;20593;-70
2021/12/17 04:12:17;;;;;;;7.27;6.40;;;;;;;9.22;78.52;103438.06;5081100;28;20192;-70
2021/12/17 04:14:45;;;;;;;8.27;6.80;;;;;;;9.17;78.24;103445.59;5080169;28;20177;-71
2021/12/17 04:17:11;;;;;;;5.97;5.37;;;;;;;9.48;78.14;103456.91;5080832;28;20443;-71
2021/12/17 04:19:36;;;;;;;19.43;12.50;;;;;;;9.24;78.04;103442.56;5080979;28;20392;-70
2021/12/17 04:22:03;;;;;;;7.30;6.00;;;;;;;9.37;77.16;103457.19;5080512;28;20411;-71
2021/12/17 04:24:29;;;;;;;5.80;4.97;;;;;;;9.36;77.28;103458.00;5080628;28;20165;-69
2021/12/17 04:26:55;;;;;;;6.90;5.30;;;;;;;9.26;77.75;103453.94;5081066;28;20489;-70
2021/12/17 04:29:21;;;;;;;5.30;4.80;;;;;;;8.97;78.41;103461.72;5080498;28;20203;-71
2021/12/17 04:31:52;;;;;;;5.97;4.80;;;;;;;9.14;78.24;103447.13;5080409;28;20165;-71
2021/12/17 04:34:19;;;;;;;4.03;3.67;;;;;;;9.07;78.01;103444.16;5081035;28;20408;-70
2021/12/17 04:36:47;;;;;;;5.10;4.60;;;;;;;9.02;77.80;103444.69;5080434;28;20390;-71
2021/12/17 04:39:15;;;;;;;5.47;4.47;;;;;;;9.27;77.77;103447.94;5080413;28;20465;-70
2021/12/17 04:42:07;;;;;;;4.80;4.30;;;;;;;9.02;78.06;103444.69;5080754;28;20399;-70
2021/12/17 04:44:33;;;;;;;4.37;3.97;;;;;;;9.21;77.25;103451.88;5079743;28;20702;-71
2021/12/17 04:57:49;;;;;;;3.83;3.40;;;;;;;9.05;76.60;103440.59;5080111;28;20439;-71
2021/12/17 05:00:21;;;;;;;3.90;3.50;;;;;;;9.19;76.39;103446.59;5080098;28;20401;-70
2021/12/17 05:02:50;;;;;;;3.60;3.30;;;;;;;9.07;76.84;103448.47;5079244;28;20397;-70
2021/12/17 05:05:17;;;;;;;4.13;3.73;;;;;;;8.89;77.55;103454.38;5079291;28;20515;-70
2021/12/17 05:07:49;;;;;;;4.40;3.63;;;;;;;9.01;77.34;103459.44;5080212;28;20803;-70
2021/12/17 05:10:31;;;;;;;4.17;3.57;;;;;;;9.33;76.40;103456.94;5080508;28;20760;-70
2021/12/17 05:18:27;;;;;;;4.93;4.30;;;;;;;9.07;77.29;103467.59;5083600;28;20405;-70
2021/12/17 05:20:57;;;;;;;6.03;4.60;;;;;;;8.99;78.15;103471.44;5083792;28;20430;-70
2021/12/17 05:23:29;;;;;;;6.40;4.57;;;;;;;9.02;78.68;103474.22;5079304;28;20815;-70
2021/12/17 05:25:54;;;;;;;5.00;4.20;;;;;;;8.86;79.08;103468.88;5079561;28;20751;-69
2021/12/17 05:28:20;;;;;;;9.10;5.50;;;;;;;9.18;78.37;103467.34;5078662;28;20439;-70
2021/12/17 05:30:47;;;;;;;7.60;5.00;;;;;;;8.94;78.71;103467.66;5079540;28;20199;-69
2021/12/17 05:33:13;;;;;;;5.43;4.60;;;;;;;8.77;80.21;103472.72;5079834;28;20228;-70
2021/12/17 05:35:39;;;;;;;6.07;4.37;;;;;;;8.76;80.11;103467.44;5079187;28;20639;-71
2021/12/17 05:38:04;;;;;;;5.90;4.37;;;;;;;9.17;78.78;103471.63;5078915;28;20441;-72
2021/12/17 05:40:29;;;;;;;6.27;4.77;;;;;;;8.68;79.70;103474.75;5080465;28;20173;-71
2021/12/17 05:42:58;;;;;;;6.80;4.00;;;;;;;9.07;79.01;103467.59;5079148;28;20173;-70
2021/12/17 05:48:04;;;;;;;5.53;4.50;;;;;;;8.75;78.97;103457.84;5078534;28;20828;-70
2021/12/17 05:50:30;;;;;;;5.73;4.43;;;;;;;8.51;79.85;103455.53;5078922;28;20407;-71
2021/12/17 05:52:55;;;;;;;6.97;4.60;;;;;;;8.65;79.75;103465.91;5078636;28;20445;-71
2021/12/17 05:55:20;;;;;;;7.07;5.03;;;;;;;8.83;79.10;103466.13;5078836;28;20425;-71
2021/12/17 05:57:46;;;;;;;5.60;4.40;;;;;;;8.82;79.44;103453.91;5078406;28;20183;-71
2021/12/17 06:00:12;;;;;;;6.33;4.20;;;;;;;8.59;80.62;103456.00;5078720;28;20441;-71
2021/12/17 06:02:37;;;;;;;6.73;4.67;;;;;;;8.58;80.13;103451.63;5078585;28;20180;-70
2021/12/17 06:05:03;;;;;;;4.77;4.17;;;;;;;8.81;79.42;103452.09;5079295;28;20675;-69
2021/12/17 06:07:29;;;;;;;6.33;4.50;;;;;;;8.65;79.87;103458.97;5078614;28;20215;-71
2021/12/17 06:09:58;;;;;;;5.57;3.60;;;;;;;8.27;79.87;103454.88;5078510;28;20175;-71
2021/12/17 06:12:23;;;;;;;3.50;3.10;;;;;;;8.36;80.35;103463.25;5078597;28;20421;-70
2021/12/17 06:14:48;;;;;;;4.80;4.13;;;;;;;8.43;79.66;103456.72;5078448;28;20411;-71
2021/12/17 06:17:14;;;;;;;5.00;3.73;;;;;;;8.46;79.49;103446.56;5078510;28;20218;-71
2021/12/17 06:19:39;;;;;;;7.43;5.90;;;;;;;8.56;79.02;103445.41;5078982;28;20169;-71
2021/12/17 06:22:04;;;;;;;6.23;3.20;;;;;;;8.18;79.80;103454.28;5078283;28;20180;-71
2021/12/17 06:24:30;;;;;;;3.77;3.37;;;;;;;8.15;80.90;103464.50;5078406;28;20165;-71
2021/12/17 06:26:56;;;;;;;3.83;2.83;;;;;;;8.03;81.59;103468.09;5078977;28;20156;-71
2021/12/17 06:29:21;;;;;;;4.80;3.27;;;;;;;8.17;80.85;103473.28;5078364;28;20177;-71
2021/12/17 06:31:46;;;;;;;5.00;4.10;;;;;;;8.33;81.22;103464.75;5078167;28;20175;-71
2021/12/17 06:34:12;;;;;;;5.23;3.57;;;;;;;8.51;80.22;103452.03;5078813;28;20196;-71
2021/12/17 06:36:37;;;;;;;5.00;3.33;;;;;;;8.16;81.31;103455.88;5078304;28;20230;-70
2021/12/17 06:39:02;;;;;;;4.37;3.70;;;;;;;8.28;82.21;103469.66;5078046;28;20217;-70
2021/12/17 06:41:28;;;;;;;7.57;4.70;;;;;;;8.34;82.37;103469.16;5078735;28;20161;-71
2021/12/17 06:43:56;;;;;;;5.90;4.30;;;;;;;8.21;82.14;103475.25;5077650;28;20468;-71
2021/12/17 06:46:33;;;;;;;9.00;6.00;;;;;;;8.55;81.44;103465.31;5077969;28;20427;-69
2021/12/17 06:49:17;;;;;;;6.57;5.17;;;;;;;8.40;82.54;103482.50;5078156;28;20764;-72
2021/12/17 07:19:06;;;;;;;6.10;4.20;;;;;;;8.50;80.67;103484.03;5081519;28;20409;-71
2021/12/17 07:21:26;;;;;;;7.90;4.80;;;;;;;8.12;80.77;103490.25;5081756;28;20494;-70
2021/12/17 07:31:16;;;;;;;7.43;4.87;;;;;;;8.11;80.65;103491.09;5081833;28;20444;-71
2021/12/17 07:32:33;;;;;;;7.63;5.40;;;;;;;8.40;79.77;103493.84;5081329;28;20451;-71
2021/12/17 07:40:03;;;;;;;10.37;6.00;;;;;;;8.56;79.75;103484.41;5083816;28;20392;-71
2021/12/17 07:42:29;;;;;;;14.53;6.53;;;;;;;8.39;80.59;103483.34;5083297;28;20415;-70
2021/12/17 07:44:55;;;;;;;10.27;6.13;;;;;;;8.02;81.59;103481.88;5082164;28;20465;-71
2021/12/17 07:47:20;;;;;;;9.10;5.97;;;;;;;8.24;80.74;103486.75;5081341;28;20622;-71
2021/12/17 07:49:45;;;;;;;7.77;5.80;;;;;;;7.89;82.50;103490.59;5081305;28;20185;-70
2021/12/17 07:52:11;;;;;;;9.00;5.70;;;;;;;7.91;81.57;103496.78;5081054;28;20260;-70
2021/12/17 07:54:36;;;;;;;7.77;5.73;;;;;;;8.68;79.00;103487.75;5081696;28;20201;-70
2021/12/17 07:57:02;;;;;;;7.30;5.87;;;;;;;8.48;79.76;103480.44;5081350;28;20526;-71
2021/12/17 07:59:27;;;;;;;6.97;5.77;;;;;;;8.26;80.75;103479.94;5081241;28;20574;-70
2021/12/17 08:01:52;;;;;;;7.23;5.70;;;;;;;8.53;80.51;103494.63;5081494;28;20218;-71
2021/12/17 08:04:17;;;;;;;10.00;6.73;;;;;;;8.14;81.15;103497.34;5081092;28;20186;-70
2021/12/17 08:06:43;;;;;;;12.33;7.80;;;;;;;8.09;81.07;103496.16;5080974;28;20181;-71
2021/12/17 08:09:08;;;;;;;11.13;5.70;;;;;;;8.37;80.83;103496.22;5081345;28;20173;-70
2021/12/17 08:11:38;;;;;;;9.93;6.27;;;;;;;8.71;79.54;103503.59;5080821;28;20192;-71
2021/12/17 08:14:07;;;;;;;11.73;6.63;;;;;;;8.06;81.75;103499.47;5081635;28;20213;-71
2021/12/17 08:16:41;;;;;;;7.93;5.50;;;;;;;8.24;81.64;103511.81;5082640;28;20518;-69
2021/12/17 08:23:26;;;;;;;11.60;8.33;;;;;;;8.16;81.69;103513.03;5081811;28;20396;-71
2021/12/17 08:24:52;;;;;;;10.03;6.67;;;;;;;8.09;81.08;103514.34;5080969;28;20436;-70
2021/12/17 08:27:43;;;;;;;10.63;7.37;;;;;;;8.03;82.31;103516.56;5080823;28;20509;-71
2021/12/17 08:32:45;;;;;;;12.40;7.37;;;;;;;8.11;81.04;103514.47;5080476;28;20725;-71
2021/12/17 08:35:11;;;;;;;9.37;7.50;;;;;;;8.13;81.91;103507.66;5080460;28;20416;-72
2021/12/17 08:37:37;;;;;;;8.67;7.00;;;;;;;8.18;82.94;103512.34;5079666;28;20398;-70
2021/12/17 08:40:04;;;;;;;4.97;4.17;;;;;;;11.41;85.80;103498.66;5080873;28;20513;-61
2021/12/17 08:42:30;;;;;;;8.70;7.07;;;;;;;11.49;72.66;103496.41;5062786;28;20481;-62
2021/12/17 08:44:55;;;;;;;7.67;6.10;;;;;;;12.15;74.35;103491.84;5067632;28;20422;-63
2021/12/17 08:47:21;;;;;;;8.17;6.27;;;;;;;9.78;73.38;103505.56;5076950;28;20298;-76
2021/12/17 08:49:48;;;;;;;6.90;5.80;;;;;;;9.00;77.54;103509.66;5060615;28;20256;-75
2021/12/17 08:52:14;;;;;;;8.20;6.23;;;;;;;8.60;78.68;103512.41;5068575;28;20231;-75
2021/12/17 08:54:39;;;;;;;6.60;5.40;;;;;;;8.70;77.80;103519.06;5080429;28;20859;-74
2021/12/17 08:57:05;;;;;;;7.67;5.90;;;;;;;8.87;77.70;103507.13;5080137;28;20181;-75
2021/12/17 08:59:31;;;;;;;8.73;6.80;;;;;;;8.34;80.09;103506.44;5080128;28;20215;-75
2021/12/17 09:01:56;;;;;;;9.17;6.60;;;;;;;8.49;79.38;103508.25;5061699;28;20452;-74
2021/12/17 09:04:22;;;;;;;7.23;5.73;;;;;;;8.06;81.80;103507.28;5059076;28;20174;-73
2021/12/17 09:06:48;;;;;;;8.53;7.00;;;;;;;7.93;82.04;103502.09;5059848;28;20181;-74
2021/12/17 09:09:18;;;;;;;8.33;5.93;;;;;;;8.48;80.18;103496.94;5060003;28;20412;-74
2021/12/17 09:11:43;;;;;;;7.50;5.30;;;;;;;8.05;80.74;103508.06;5059657;28;20200;-75
2021/12/17 09:14:09;;;;;;;7.50;5.73;;;;;;;8.66;79.73;103507.59;5059720;28;20442;-75
2021/12/17 09:16:34;;;;;;;8.93;6.10;;;;;;;8.54;79.81;103512.03;5060095;28;20170;-75
2021/12/17 09:19:00;;;;;;;7.70;6.80;;;;;;;8.56;79.89;103503.50;5077932;28;20195;-75
2021/12/17 09:21:25;;;;;;;7.40;6.23;;;;;;;8.20;80.69;103510.75;5079521;28;20259;-75
2021/12/17 09:23:51;;;;;;;7.00;6.30;;;;;;;8.44;80.13;103515.69;5079838;28;20180;-75
2021/12/17 09:26:17;;;;;;;8.77;6.43;;;;;;;8.48;79.99;103519.44;5079491;28;20454;-76
2021/12/17 09:28:42;;;;;;;10.93;6.87;;;;;;;8.75;78.99;103520.25;5079651;28;20179;-78
2021/12/17 09:31:12;;;;;;;25.13;16.80;;;;;;;8.87;78.12;103525.31;5083983;28;20378;-77
2021/12/17 09:33:49;;;;;;;7.60;6.33;;;;;;;8.85;79.21;103527.84;5080808;28;20209;-77
2021/12/17 09:36:15;;;;;;;12.17;9.10;;;;;;;9.03;78.25;103532.38;5079469;28;20422;-79
2021/12/17 09:38:40;;;;;;;7.90;6.07;;;;;;;8.85;78.18;103532.13;5079458;28;20398;-73
2021/12/17 09:41:06;;;;;;;5.93;5.33;;;;;;;8.55;78.83;103537.22;5080077;28;20497;-74
2021/12/17 09:43:35;;;;;;;5.17;4.60;;;;;;;8.02;79.43;103536.44;5081270;28;20211;-74
2021/12/17 09:46:01;;;;;;;4.80;4.37;;;;;;;8.50;78.61;103541.25;5079262;28;20181;-74
2021/12/17 09:48:26;;;;;;;4.40;3.90;;;;;;;8.46;78.14;103537.53;5079118;28;20426;-74
2021/12/17 09:50:52;;;;;;;5.27;4.43;;;;;;;8.82;77.80;103550.16;5079090;28;20473;-75
2021/12/17 09:53:18;;;;;;;5.43;4.73;;;;;;;8.39;78.04;103553.53;5058834;28;20241;-76
2021/12/17 09:55:44;;;;;;;6.87;5.80;;;;;;;8.63;78.04;103548.09;5058979;28;20482;-75
2021/12/17 09:58:10;;;;;;;5.40;4.57;;;;;;;8.42;78.26;103556.31;5059422;28;20562;-75
2021/12/17 10:00:35;;;;;;;5.47;4.97;;;;;;;8.69;77.88;103556.31;5058929;28;20394;-76
2021/12/17 10:03:00;;;;;;;6.23;5.47;;;;;;;8.46;77.80;103553.16;5058991;28;20192;-76
2021/12/17 10:05:30;;;;;;;5.70;5.10;;;;;;;8.68;77.71;103562.31;5061992;28;20176;-75
2021/12/17 10:08:00;;;;;;;10.97;7.20;;;;;;;8.54;77.40;103553.63;5061261;28;20543;-75
2021/12/17 10:10:38;;;;;;;6.90;5.77;;;;;;;8.56;78.15;103547.69;5059378;28;20416;-76
2021/12/17 10:13:09;;;;;;;5.87;5.27;;;;;;;8.73;77.45;103548.78;5058958;28;20470;-74
2021/12/17 10:15:36;;;;;;;7.30;6.10;;;;;;;8.43;77.39;103550.31;5058677;28;20408;-76
2021/12/17 10:18:02;;;;;;;7.87;5.63;;;;;;;8.54;77.99;103549.31;5058679;28;20395;-74
2021/12/17 10:20:31;;;;;;;5.83;5.10;;;;;;;8.70;77.42;103552.88;5058733;28;20402;-74
2021/12/17 10:22:59;;;;;;;6.20;5.60;;;;;;;8.51;77.52;103545.63;5058724;28;20442;-73
2021/12/17 10:25:27;;;;;;;5.43;4.93;;;;;;;8.88;77.25;103550.53;5058610;28;20793;-76
2021/12/17 10:27:57;;;;;;;5.10;4.60;;;;;;;8.67;76.54;103550.09;5058480;28;20394;-74
2021/12/17 10:30:23;;;;;;;5.33;4.83;;;;;;;8.63;76.73;103548.09;5059628;28;20451;-74
2021/12/17 10:32:51;;;;;;;5.33;4.83;;;;;;;8.84;76.03;103552.03;5058458;28;20497;-77
2021/12/17 10:35:21;;;;;;;4.37;3.70;;;;;;;8.73;76.10;103543.56;5058943;28;20185;-78
2021/12/17 10:37:52;;;;;;;4.37;3.97;;;;;;;8.55;77.29;103547.63;5058507;28;20671;-79
2021/12/17 10:40:27;;;;;;;5.10;4.20;;;;;;;8.64;75.85;103545.59;5058262;28;20493;-75
2021/12/17 10:43:06;;;;;;;5.30;4.20;;;;;;;8.64;75.82;103545.59;5057643;28;20814;-77
2021/12/17 10:45:42;;;;;;;4.43;4.03;;;;;;;8.82;75.63;103545.88;5057677;28;20721;-75
2021/12/17 10:48:29;;;;;;;6.60;5.20;;;;;;;8.82;75.84;103544.94;5061779;28;20452;-75
2021/12/17 10:51:22;;;;;;;11.90;7.40;;;;;;;8.58;76.27;103551.31;5057507;28;20415;-75
2021/12/17 10:53:55;;;;;;;9.37;7.50;;;;;;;8.66;76.05;103544.00;5077798;28;20471;-77
2021/12/17 10:56:34;;;;;;;7.03;6.20;;;;;;;8.57;76.71;103538.22;5077232;28;20416;-76
2021/12/17 10:59:08;;;;;;;6.77;6.17;;;;;;;8.82;76.40;103542.34;5078118;28;20684;-76
2021/12/17 11:01:44;;;;;;;8.90;7.73;;;;;;;8.65;76.67;103542.19;5079716;28;20431;-78
2021/12/17 11:04:18;;;;;;;8.47;7.57;;;;;;;8.67;75.65;103545.78;5077919;28;20415;-79
2021/12/17 11:07:00;;;;;;;9.50;8.47;;;;;;;8.83;74.45;103551.97;5078219;28;20410;-75
2021/12/17 11:09:37;;;;;;;9.20;8.30;;;;;;;8.63;75.51;103546.38;5078170;28;20666;-75
2021/12/17 11:12:17;;;;;;;9.17;8.27;;;;;;;8.42;75.69;103538.13;5077614;28;20439;-73
2021/12/17 11:14:44;;;;;;;11.93;9.10;;;;;;;8.58;76.38;103540.03;5076906;28;20426;-74
2021/12/17 11:17:10;;;;;;;12.03;8.60;;;;;;;8.72;75.99;103533.97;5077669;28;20636;-76
2021/12/17 11:19:36;;;;;;;10.90;8.17;;;;;;;8.77;75.94;103524.75;5077771;28;20394;-76
2021/12/17 11:22:01;;;;;;;8.40;7.60;;;;;;;8.69;76.78;103518.19;5077026;28;20421;-78
2021/12/17 11:24:27;;;;;;;9.47;7.30;;;;;;;8.92;75.86;103516.09;5078058;28;20173;-77
2021/12/17 11:26:52;;;;;;;9.20;7.83;;;;;;;8.95;76.13;103520.59;5076910;28;20180;-77
2021/12/17 11:29:18;;;;;;;11.10;8.03;;;;;;;8.68;76.86;103526.78;5077199;28;20195;-77
2021/12/17 11:31:43;;;;;;;10.40;7.77;;;;;;;8.53;77.50;103525.81;5077346;28;20173;-76
2021/12/17 11:34:10;;;;;;;8.33;7.40;;;;;;;8.93;76.29;103515.31;5077072;28;20262;-76
2021/12/17 11:36:35;;;;;;;8.70;7.83;;;;;;;8.93;76.65;103510.09;5077733;28;20184;-76
2021/12/17 11:39:10;;;;;;;11.87;7.90;;;;;;;9.07;77.23;103510.94;5079917;28;20389;-77
2021/12/17 11:41:52;;;;;;;9.17;7.07;;;;;;;8.80;77.26;103518.84;5079780;28;20172;-76
2021/12/17 11:44:19;;;;;;;8.80;6.70;;;;;;;8.85;77.22;103513.91;5079452;28;20468;-78
2021/12/17 11:46:59;;;;;;;8.10;7.30;;;;;;;8.94;77.57;103511.88;5077573;28;20408;-77
2021/12/17 11:49:26;;;;;;;7.50;6.47;;;;;;;9.29;76.88;103513.09;5058940;28;20779;-77
2021/12/17 11:51:55;;;;;;;9.23;6.77;;;;;;;9.41;76.70;103503.41;5055723;28;20504;-76
2021/12/17 11:54:31;;;;;;;6.87;6.17;;;;;;;9.08;77.05;103503.22;5057016;28;20899;-75
2021/12/17 11:57:08;;;;;;;6.10;5.50;;;;;;;9.17;77.13;103504.56;5059533;28;20382;-75
2021/12/17 11:59:37;;;;;;;9.90;6.20;;;;;;;9.20;78.02;103510.88;5061101;28;20418;-76
2021/12/17 12:02:08;;;;;;;8.57;6.33;;;;;;;9.22;77.85;103508.34;5060480;28;20440;-76
2021/12/17 12:04:34;;;;;;;8.30;6.97;;;;;;;9.39;77.58;103505.06;5060278;28;20579;-76
2021/12/17 12:07:03;;;;;;;8.23;6.27;;;;;;;9.35;76.94;103504.75;5060901;28;20497;-77
2021/12/17 12:10:05;;;;;;;9.03;7.17;;;;;;;9.05;78.26;103504.72;5061190;28;20161;-76
2021/12/17 12:12:36;;;;;;;8.97;7.07;;;;;;;9.19;78.50;103509.06;5060355;28;20944;-75
2021/12/17 12:15:17;;;;;;;8.23;7.43;;;;;;;9.09;78.00;103505.03;5060641;28;20415;-74
2021/12/17 12:17:57;;;;;;;8.73;7.10;;;;;;;9.08;78.08;103503.22;5060498;28;20419;-75
2021/12/17 12:20:51;;;;;;;11.90;8.20;;;;;;;9.29;78.19;103507.91;5061632;28;20412;-75
2021/12/17 12:23:32;;;;;;;10.10;8.63;;;;;;;9.52;77.80;103506.66;5059443;28;20419;-75
2021/12/17 12:26:11;;;;;;;12.90;10.00;;;;;;;9.46;78.10;103506.31;5060543;28;20466;-78
2021/12/17 12:28:45;;;;;;;12.67;8.63;;;;;;;9.88;77.76;103498.28;5060695;28;20416;-75
2021/12/17 12:31:12;;;;;;;12.57;10.07;;;;;;;9.48;77.62;103502.06;5060358;28;20386;-76
2021/12/17 12:34:00;;;;;;;10.60;8.87;;;;;;;9.25;79.15;103506.84;5059664;28;20467;-77
2021/12/17 12:36:47;;;;;;;15.00;9.33;;;;;;;9.23;80.05;103503.25;5060034;28;20406;-76
2021/12/17 12:39:28;;;;;;;11.10;9.20;;;;;;;9.20;79.22;103508.28;5060196;28;20443;-76
2021/12/17 12:42:02;;;;;;;11.57;9.40;;;;;;;9.58;78.75;103511.34;5060274;28;20685;-74
2021/12/17 12:44:39;;;;;;;15.07;8.97;;;;;;;9.29;79.49;103507.03;5060150;28;20451;-75
2021/12/17 12:47:04;;;;;;;11.07;8.20;;;;;;;9.20;80.77;103507.34;5059914;28;20439;-76
2021/12/17 12:49:54;;;;;;;12.30;8.67;;;;;;;9.23;80.03;103513.66;5060083;28;20514;-74
2021/12/17 12:52:32;;;;;;;11.80;8.90;;;;;;;9.43;79.59;103508.72;5059485;28;20237;-75
2021/12/17 12:55:18;;;;;;;12.63;8.83;;;;;;;9.55;79.43;103500.72;5060028;28;20413;-74
2021/12/17 12:57:58;;;;;;;11.37;8.70;;;;;;;9.52;78.77;103497.97;5059921;28;20886;-77
2021/12/17 13:00:56;;;;;;;10.73;7.80;;;;;;;9.58;78.30;103496.59;5059663;28;20472;-76
2021/12/17 13:03:30;;;;;;;13.20;8.47;;;;;;;9.89;77.53;103487.94;5058355;28;20387;-76
2021/12/17 13:05:56;;;;;;;11.50;8.00;;;;;;;9.62;78.64;103489.88;5059556;28;20411;-74
2021/12/17 13:08:23;;;;;;;10.33;8.13;;;;;;;9.82;77.74;103492.72;5059448;28;20383;-76
2021/12/17 13:10:54;;;;;;;9.77;7.60;;;;;;;10.01;76.99;103479.94;5059646;28;20417;-75
2021/12/17 13:13:31;;;;;;;9.30;7.80;;;;;;;9.84;77.66;103478.97;5059569;28;20426;-74
2021/12/17 13:16:08;;;;;;;9.80;7.90;;;;;;;9.90;77.77;103481.03;5059366;28;20750;-77
2021/12/17 13:24:12;;;;;;;9.93;7.77;;;;;;;9.49;78.79;103483.03;5059554;28;20397;-74
2021/12/17 13:26:45;;;;;;;12.70;8.43;;;;;;;9.71;79.57;103477.34;5059594;28;20828;-79
2021/12/17 13:29:23;;;;;;;12.47;9.10;;;;;;;9.56;78.96;103477.38;5059461;28;20405;-77
2021/12/17 13:31:50;;;;;;;9.80;7.70;;;;;;;9.51;79.96;103476.25;5059255;28;20402;-75
2021/12/17 13:34:23;;;;;;;11.60;9.17;;;;;;;9.20;80.92;103474.44;5058668;28;20441;-75
2021/12/17 13:36:53;;;;;;;13.20;8.43;;;;;;;9.40;80.98;103480.81;5061205;28;20420;-76
2021/12/17 13:39:19;;;;;;;10.20;8.10;;;;;;;9.47;81.01;103470.75;5063904;28;20838;-77
2021/12/17 13:41:46;;;;;;;11.17;8.13;;;;;;;9.43;81.06;103470.56;5060166;28;20394;-76
2021/12/17 13:44:36;;;;;;;13.73;7.93;;;;;;;9.53;80.32;103469.41;5059513;28;20404;-78
2021/12/17 13:47:11;;;;;;;12.00;8.07;;;;;;;9.59;80.63;103467.16;5059364;28;20431;-76
2021/12/17 13:49:37;;;;;;;10.47;7.70;;;;;;;9.83;80.85;103476.28;5059128;28;20817;-75
2021/12/17 13:52:04;;;;;;;11.70;8.00;;;;;;;9.75;79.62;103484.53;5058567;28;20442;-75
2021/12/17 13:54:29;;;;;;;12.00;8.30;;;;;;;9.78;80.08;103483.81;5058208;28;20665;-77
2021/12/17 13:56:57;;;;;;;11.67;7.50;;;;;;;9.76;80.54;103480.25;5059224;28;20406;-76
2021/12/17 13:59:35;;;;;;;9.73;8.27;;;;;;;9.46;81.74;103484.56;5057837;28;20169;-77
2021/12/17 14:02:19;;;;;;;11.83;8.40;;;;;;;9.52;81.09;103474.50;5057765;28;20817;-73
2021/12/17 14:05:11;;;;;;;12.70;7.67;;;;;;;9.71;81.48;103479.97;5058477;28;20548;-73
2021/12/17 14:07:38;;;;;;;8.60;6.93;;;;;;;9.66;81.41;103468.41;5058136;28;20463;-72
2021/12/17 14:10:13;;;;;;;8.13;7.20;;;;;;;9.77;80.74;103466.41;5059473;28;20641;-78
2021/12/17 14:12:40;;;;;;;9.60;7.63;;;;;;;9.72;80.80;103468.75;5059339;28;20517;-78
2021/12/17 14:15:28;;;;;;;10.07;7.50;;;;;;;10.10;79.87;103467.38;5059749;28;20498;-77